Latest Coastal Weather Observations for Adelaide Airport

IDS60701

Issued at 10:31 am CST Sunday 24 July 2016 (issued every 10 minutes, with the page automatically refreshed every 10 minutes)

About coastal observations | Map of coastal stations | Coastal observations for SA | Marine services | Other Formats
Station Details ID: 023034 Name: ADELAIDE AIRPORT Lat: -34.95 Lon: 138.52 Height: 2.0 m
Data from the previous 72 hours. | See also: Recent months at Adelaide Airport
Date/Time
CST
Temp
°C
Wind Pressure Rain since
9am
mm
Weather Cloud Vis
km
Sea
Height
m
Swell
Dir  Spd
kts
Gust
kts
hPa Trend Height
m
Period
s
Dir
24/10:23am 8.6 WNW 13 18 1008.8 - 3.4 - Mostly clear 10 - - - -
24/10:06am 7.3 W 21 33 1008.8 - 3.0 Showers Mostly clear 4 - - - -
24/10:00am 7.4 NW 25 33 1008.7 - 2.8 Showers Mostly clear 4 - - - -
24/09:40am 9.8 NNW 22 32 1008.1 - 1.0 Showers Mostly clear 4 - - - -
24/09:30am 10.2 NNW 25 33 1008.1 - 0.4 - Mostly clear 4 - - - -
24/09:28am 10.2 NNW 25 33 1008.0 - 0.4 Showers Mostly clear 5 - - - -
24/09:17am 10.5 NNW 15 26 1007.9 - 0.4 Showers Mostly clear 10 - - - -
24/09:00am 10.6 N 15 24 1008.0 F 0.6 Showers Mostly cloudy 9 - - - -
24/08:30am 10.4 N 18 23 1008.2 - 0.6 - Mostly clear 10 - - - -
24/08:00am 10.1 N 17 21 1008.4 - 0.6 - Mostly clear 10 - - - -
24/07:45am 10.0 N 15 25 1008.4 - 0.6 - Mostly clear 10 - - - -
24/07:30am 9.7 N 15 20 1008.4 - 0.6 - Mostly clear 10 - - - -
24/07:00am 9.3 N 15 22 1008.6 - 0.6 Showers Mostly clear 9 - - - -
24/06:30am 8.8 N 15 19 1009.1 - 0.4 - Mostly clear 9 - - - -
24/06:00am 9.0 N 14 18 1009.1 F 0.2 Distant precip. Cloudy 25 - - - -
24/05:30am 8.5 N 12 16 1009.4 - 0.2 - Mostly clear 10 - - - -
24/05:00am 8.4 NNE 13 17 1009.7 - 0.2 - Partly cloudy 10 - - - -
24/04:30am 8.1 NNE 12 15 1010.1 - 0.2 - Cloudy 10 - - - -
24/04:00am 7.4 NNE 12 15 1010.4 - 0.2 - Partly cloudy 10 - - - -
24/03:30am 7.4 NNE 9 11 1011.2 - 0.2 - Partly cloudy 10 - - - -
24/03:00am 7.1 NNE 9 11 1011.5 F 0.2 Fine Mostly clear 25 - - - -
24/02:30am 6.9 NNE 9 10 1011.9 - 0.2 - Mostly clear 10 - - - -
24/02:00am 6.9 NNE 9 10 1012.4 - 0.2 - Mostly clear 10 - - - -
24/01:30am 6.9 NNE 9 10 1012.9 - 0.2 - Mostly clear 10 - - - -
24/01:00am 6.9 NNE 10 13 1013.4 - 0.2 - Mostly clear 10 - - - -
24/12:30am 6.9 NNE 9 11 1013.9 - 0.2 - Mostly clear 10 - - - -
24/12:00am 7.0 NE 8 9 1014.1 F 0.2 Fine Mostly clear 20 - - - -
 
Date/Time
CST
Temp
°C
Wind Pressure Rain since
9am
mm
Weather Cloud Vis
km
Sea
Height
m
Swell
Dir  Spd
kts
Gust
kts
hPa Trend Height
m
Period
s
Dir
23/11:30pm 7.3 NNE 8 10 1014.6 - 0.2 - Mostly clear 10 - - - -
23/11:00pm 7.8 NNE 9 10 1014.8 - 0.2 - Mostly clear 10 - - - -
23/10:30pm 8.3 NNE 9 13 1015.0 - 0.2 - Mostly clear 10 - - - -
23/10:00pm 8.7 N 9 11 1015.1 - 0.2 - Mostly clear 10 - - - -
23/09:30pm 9.0 N 7 9 1015.2 - 0.2 - Mostly clear 10 - - - -
23/09:00pm 9.5 N 6 7 1015.3 F 0.2 Fine Mostly clear 20 - - - -
23/08:30pm 10.1 NNW 7 9 1015.4 - 0.2 - Mostly clear 10 - - - -
23/08:00pm 9.9 NNW 6 8 1015.4 - 0.2 - Mostly clear 10 - - - -
23/07:30pm 10.7 N 5 6 1015.4 - 0.2 - Mostly clear 10 - - - -
23/07:00pm 10.7 NNW 7 8 1015.4 - 0.2 - Mostly clear 10 - - - -
23/06:30pm 10.3 NNW 7 9 1015.2 - 0.2 - Mostly clear 10 - - - -
23/06:00pm 10.6 NW 6 8 1015.2 S 0.2 Distant precip. Mostly cloudy 25 - - - -
23/05:30pm 10.6 WNW 9 12 1015.1 - 0.2 - Mostly clear 10 - - - -
23/05:00pm 10.9 NW 8 12 1015.0 - 0.2 - Mostly clear 10 - - - -
23/04:30pm 11.1 WNW 8 11 1015.0 - 0.2 - Mostly clear 10 - - - -
23/04:00pm 11.7 WNW 10 14 1015.0 - 0.2 - Mostly clear 10 - - - -
23/03:30pm 10.3 SW 10 15 1015.1 - 0.2 - Partly cloudy 10 - - - -
23/03:00pm 13.1 WNW 9 11 1014.9 R 0.0 Distant precip. Mostly cloudy 30 - - - -
23/02:30pm 13.1 WNW 8 12 1014.9 - 0.0 - Partly cloudy 10 - - - -
23/02:00pm 12.9 W 9 12 1014.8 - 0.0 - Partly cloudy 10 - - - -
23/01:30pm 12.7 WSW 9 13 1014.8 - 0.0 - Mostly clear 10 - - - -
23/01:00pm 12.6 WSW 9 11 1014.9 - 0.0 - Mostly clear 10 - - - -
23/12:30pm 12.8 SW 10 13 1014.9 - 0.0 - Mostly clear 10 - - - -
23/12:00pm 12.5 SW 10 14 1015.1 R 0.0 Fine Partly cloudy 30 - - - -
23/11:30am 12.7 SW 13 15 1015.4 - 0.0 - Mostly clear 10 - - - -
23/11:00am 12.5 SW 11 15 1015.3 - 0.0 - Partly cloudy 10 - - - -
23/10:30am 12.1 SSW 8 12 1015.1 - 0.0 - Partly cloudy 10 - - - -
23/10:00am 11.5 S 6 8 1014.9 - 0.0 - Partly cloudy 10 - - - -
23/09:30am 12.2 SW 9 15 1014.5 - 0.0 - Partly cloudy 10 - - - -
23/09:00am 11.1 SW 11 14 1014.1 R 3.4 Distant precip. Partly cloudy 25 - - - -
23/08:30am 11.1 SW 12 16 1013.6 - 3.4 - Partly cloudy 10 - - - -
23/08:00am 10.7 SSW 9 14 1013.0 - 3.4 - Partly cloudy 10 - - - -
23/07:30am 10.9 SSW 14 19 1012.6 - 3.2 - Mostly clear 10 - - - -
23/07:00am 10.6 SW 11 15 1012.0 - 3.2 - Mostly clear 10 - - - -
23/06:30am 10.9 SW 14 19 1011.5 - 3.2 - Mostly clear 10 - - - -
23/06:00am 10.9 SW 12 15 1011.2 R 3.2 Fine Partly cloudy 25 - - - -
23/05:30am 11.2 SW 16 20 1010.8 - 3.2 - Mostly clear 10 - - - -
23/05:00am 11.3 SW 16 20 1010.4 - 3.2 - Mostly clear 10 - - - -
23/04:30am 11.3 SW 15 19 1009.8 - 3.2 - Mostly clear 10 - - - -
23/04:00am 11.3 WSW 15 20 1009.4 - 3.2 - Mostly clear 10 - - - -
23/03:30am 11.3 WSW 16 21 1009.2 - 3.2 - Mostly clear 10 - - - -
23/03:00am 11.4 SW 17 22 1009.4 R 3.2 Fine Partly cloudy 20 - - - -
23/02:30am 11.4 SW 15 19 1009.3 - 3.2 - Mostly clear 10 - - - -
23/02:00am 11.4 SW 15 19 1009.2 - 3.2 - Mostly clear 10 - - - -
23/01:30am 11.6 SW 16 22 1008.8 - 3.2 - Partly cloudy 10 - - - -
23/01:00am 11.8 WSW 22 28 1008.4 - 3.2 - Partly cloudy 10 - - - -
23/12:39am 12.2 WSW 24 34 1008.1 - 3.2 - Partly cloudy 10 - - - -
23/12:30am 12.1 WSW 24 31 1008.0 - 3.2 - Partly cloudy 10 - - - -
23/12:16am 11.8 W 17 27 1007.9 - 3.2 - Partly cloudy 10 - - - -
23/12:00am 11.6 W 19 25 1007.7 R 3.2 Recent precip. Mostly cloudy 20 - - - -
 
Date/Time
CST
Temp
°C
Wind Pressure Rain since
9am
mm
Weather Cloud Vis
km
Sea
Height
m
Swell
Dir  Spd
kts
Gust
kts
hPa Trend Height
m
Period
s
Dir
22/11:30pm 12.2 W 22 30 1007.2 - 3.0 - Mostly clear 10 - - - -
22/11:13pm 12.1 W 22 32 1006.9 - 3.0 - Mostly clear 10 - - - -
22/11:00pm 11.9 W 21 28 1006.6 - 3.0 - Mostly clear 10 - - - -
22/10:30pm 11.8 W 24 33 1006.3 - 3.0 - Mostly clear 10 - - - -
22/10:16pm 11.9 WNW 24 35 1006.1 - 3.0 - Mostly clear 10 - - - -
22/10:00pm 12.1 WNW 27 34 1005.8 - 3.0 - Mostly clear 10 - - - -
22/09:52pm 12.2 WNW 24 34 1005.5 - 3.0 - Partly cloudy 10 - - - -
22/09:30pm 11.9 WNW 22 29 1005.3 - 3.0 - Partly cloudy 10 - - - -
22/09:07pm 12.0 WNW 23 33 1005.1 - 3.0 - Partly cloudy 10 - - - -
22/09:00pm 12.1 W 24 32 1004.9 R 3.0 Fine Mostly cloudy 20 - - - -
22/08:30pm 12.0 W 26 34 1004.7 - 3.0 - Mostly clear 10 - - - -
22/08:21pm 12.0 W 24 34 1004.7 - 3.0 - Mostly clear 10 - - - -
22/08:00pm 11.9 WNW 21 29 1004.4 - 3.0 - Mostly clear 10 - - - -
22/07:30pm 10.3 WNW 24 43 1004.2 - 3.0 - Partly cloudy 10 - - - -
22/07:00pm 11.3 W 22 30 1003.6 - 2.8 - Mostly clear 10 - - - -
22/06:46pm 10.9 W 27 37 1003.4 - 2.8 - Mostly clear 10 - - - -
22/06:30pm 10.4 WNW 29 50 1003.2 - 2.8 - Partly cloudy 10 - - - -
22/06:24pm 10.0 WNW 22 50 1003.3 - 2.6 Hail showers Partly cloudy 4 - - - -
22/06:23pm 10.6 WNW 21 36 1003.4 - 2.6 Hail showers Partly cloudy 4 - - - -
22/06:00pm 12.6 WNW 22 30 1002.5 R 1.8 Recent precip. Mostly cloudy 25 - - - -
22/05:30pm 11.7 WNW 21 30 1001.9 - 1.8 - Mostly clear 10 - - - -
22/05:16pm 11.1 W 22 32 1001.8 - 1.8 - Partly cloudy 10 - - - -
22/05:02pm 10.8 WNW 25 34 1002.1 - 1.2 Showers Partly cloudy 4 - - - -
22/05:00pm 12.0 WNW 25 33 1002.0 - 0.4 Showers Partly cloudy 4 - - - -
22/04:49pm 12.9 NW 23 33 1001.2 - 0.4 - Mostly clear 10 - - - -
22/04:30pm 12.9 WNW 25 32 1001.2 - 0.4 - Mostly clear 10 - - - -
22/04:00pm 12.1 WNW 23 30 1001.0 - 0.4 - Mostly clear 10 - - - -
22/03:55pm 11.9 WNW 25 35 1001.0 - 0.4 - Partly cloudy 10 - - - -
22/03:44pm 11.8 WNW 29 41 1001.1 - 0.4 Showers Partly cloudy 7 - - - -
22/03:36pm 12.4 NW 24 40 1001.2 - 0.4 Showers Partly cloudy 8 - - - -
22/03:30pm 13.8 NW 22 30 1000.6 - 0.4 - Partly cloudy 10 - - - -
22/03:00pm 13.9 NW 20 27 1000.3 F 0.4 Showers Mostly cloudy 20 - - - -
22/02:30pm 13.4 NW 19 25 1000.4 - 0.4 - Mostly clear 10 - - - -
22/02:00pm 14.4 NW 18 22 1000.2 - 0.4 - Mostly clear 10 - - - -
22/01:30pm 13.4 NW 18 21 1000.5 - 0.4 - Partly cloudy 10 - - - -
22/01:13pm 13.4 NW 20 27 1001.0 - 0.2 Showers Partly cloudy 4 - - - -
22/01:06pm 13.8 NW 18 22 1001.0 - 0.0 Showers Partly cloudy 6 - - - -
22/01:00pm 14.5 NW 18 22 1001.1 - 0.0 Showers Partly cloudy 10 - - - -
22/12:30pm 15.1 NW 18 23 1001.2 - 0.0 - Mostly clear 10 - - - -
22/12:00pm 14.8 NNW 19 22 1001.7 F 0.0 Distant precip. Mostly cloudy 25 - - - -
22/11:30am 14.3 NNW 17 22 1002.1 - 0.0 - Partly cloudy 10 - - - -
22/11:00am 13.9 NW 19 27 1002.6 - 0.0 - Mostly clear 10 - - - -
22/10:30am 14.4 NNW 19 27 1003.0 - 0.0 - Mostly clear 10 - - - -
22/10:21am 14.3 NNW 17 27 1003.0 - 0.0 - Mostly clear 10 - - - -
22/10:00am 14.3 NNW 17 20 1003.4 - 0.0 - Mostly clear 10 - - - -
22/09:30am 14.3 NNW 15 21 1003.5 - 0.0 - Mostly clear 10 - - - -
22/09:00am 14.2 NNW 15 17 1003.9 F 0.2 Haze Mostly cloudy 15 - - - -
22/08:30am 14.2 NNW 16 22 1003.6 - 0.2 - Mostly clear 10 - - - -
22/08:00am 14.2 NNW 15 19 1003.6 - 0.2 - Mostly clear 10 - - - -
22/07:30am 14.2 NNW 14 17 1003.5 - 0.2 - Mostly clear 10 - - - -
22/07:00am 14.1 NNW 14 17 1003.5 - 0.2 - Mostly clear 10 - - - -
22/06:30am 14.1 NNW 11 17 1003.4 - 0.2 - Mostly clear 10 - - - -
22/06:00am 14.2 NW 13 16 1003.5 R 0.2 Fine Mostly cloudy 20 - - - -
22/05:30am 14.3 NNW 11 14 1003.2 - 0.2 - Mostly clear 10 - - - -
22/05:00am 14.3 NW 13 18 1003.4 - 0.0 Showers Mostly clear 10 - - - -
22/04:30am 14.7 NNW 11 15 1003.0 - 0.0 - Mostly clear 10 - - - -
22/04:00am 15.0 NNW 11 15 1003.4 - 0.0 - Mostly clear 10 - - - -
22/03:30am 15.1 NNW 12 15 1003.5 - 0.0 - Mostly clear 10 - - - -
22/03:00am 15.2 NNW 12 16 1003.4 F 0.0 Fine Mostly cloudy 30 - - - -
22/02:30am 15.6 NNW 10 15 1003.6 - 0.0 - Cloudy 10 - - - -
22/02:00am 15.7 NNW 10 14 1003.7 - 0.0 - Cloudy 10 - - - -
22/01:30am 15.4 NW 9 14 1004.1 - 0.0 - Partly cloudy 10 - - - -
22/01:00am 15.3 WNW 9 11 1004.4 - 0.0 - Cloudy 10 - - - -
22/12:30am 15.5 WNW 7 10 1004.5 - 0.0 - Partly cloudy 10 - - - -
22/12:00am 15.8 WNW 9 14 1004.9 R 0.0 Fine Mostly cloudy 30 - - - -
 
Date/Time
CST
Temp
°C
Wind Pressure Rain since
9am
mm
Weather Cloud Vis
km
Sea
Height
m
Swell
Dir  Spd
kts
Gust
kts
hPa Trend Height
m
Period
s
Dir
21/11:30pm 16.9 NW 14 18 1004.8 - 0.0 - Partly cloudy 10 - - - -
21/11:00pm 18.4 NNW 16 22 1004.7 - 0.0 - Partly cloudy 10 - - - -
21/10:47pm 20.5 N 17 23 1003.4 - 0.0 - Partly cloudy 10 - - - -
21/10:30pm 20.8 N 16 22 1003.8 - 0.0 - Partly cloudy 10 - - - -
21/10:19pm 20.6 N 15 27 1003.8 - 0.0 - Partly cloudy 10 - - - -
21/10:00pm 20.2 N 15 19 1004.1 - 0.0 - Partly cloudy 10 - - - -
21/09:30pm 20.5 N 16 22 1004.4 - 0.0 - - 10 - - - -
21/09:00pm 20.5 N 15 22 1004.6 F 0.0 Fine Mostly cloudy 35 - - - -
21/08:30pm 20.4 N 15 19 1005.3 - 0.0 - Partly cloudy 10 - - - -
21/08:00pm 20.6 NNE 15 19 1005.3 - 0.0 - Partly cloudy 10 - - - -
21/07:30pm 20.8 N 16 20 1005.2 - 0.0 - Partly cloudy 10 - - - -
21/07:00pm 20.6 N 14 18 1005.5 - 0.0 - Partly cloudy 10 - - - -
21/06:44pm 20.7 N 14 19 1005.4 - 0.0 - Partly cloudy 10 - - - -
21/06:30pm 20.8 N 14 18 1005.7 - 0.0 - Partly cloudy 10 - - - -
21/06:00pm 20.9 N 16 21 1005.7 F 0.0 Fine Mostly cloudy 35 - - - -
21/05:30pm 21.2 N 15 20 1005.9 - 0.0 - - 10 - - - -
21/05:00pm 21.4 N 16 22 1006.3 - 0.0 - - 10 - - - -
21/04:30pm 21.5 N 15 20 1006.4 - 0.0 - - 10 - - - -
21/04:00pm 21.4 N 15 18 1006.8 - 0.0 - Mostly clear 10 - - - -
21/03:30pm 21.4 N 11 19 1007.6 - 0.0 - Mostly clear 10 - - - -
21/03:00pm 21.2 N 15 20 1008.0 F 0.0 Fine Partly cloudy 35 - - - -
21/02:30pm 21.8 N 12 16 1009.0 - 0.0 - - 10 - - - -
21/02:00pm 21.9 N 15 23 1008.8 - 0.0 - - 10 - - - -
21/01:30pm 22.2 N 16 23 1009.4 - 0.0 - Partly cloudy 10 - - - -
21/01:00pm 21.3 N 12 18 1010.3 - 0.0 - Partly cloudy 10 - - - -
21/12:30pm 21.1 N 13 20 1011.1 - 0.0 - Partly cloudy 10 - - - -
21/12:00pm 20.9 N 12 15 1011.9 F 0.0 Fine Mostly cloudy 35 - - - -
21/11:30am 19.9 N 12 17 1012.6 - 0.0 - Partly cloudy 10 - - - -
21/11:00am 19.0 NNE 11 15 1013.1 - 0.0 - Partly cloudy 10 - - - -

Other Formats:

Comma delimited format used in spreadsheet applications
http://www.bom.gov.au/fwo/IDS60701/IDS60701.94672.axf

JavaScript Object Notation format (JSON) in row-major order
http://www.bom.gov.au/fwo/IDS60701/IDS60701.94672.json